Main page
METAR-TAF:

METAR-TAF

Airports :

Liverpool, England

Liverpool John Lennon Airport

latitude: 53-20N, longitude: 002-51W, elevation: 26 m

Current weather observation

The report was made 29 minutes ago, at 17:20 UTC
Wind 8 kt from the West
Temperature 10°C
Humidity 76%
Pressure 1016 hPa
Visibility 10 km or more
Scattered clouds at a height of 2600 ft
Broken clouds at a height of 4500 ft

METAR: EGGP 281720Z 28008KT 9999 SCT026 BKN045 10/06 Q1016

Time: 18:49 (17:49 UTC)

Forecast

The report was made 47 minutes ago, at 17:02 UTC
Forecast valid from 28 at 18 UTC to 29 at 18 UTC
Wind 3 kt from variable directions
Visibility 10 km or more
Scattered clouds at a height of 3500 ft
Becoming
from 29 at 06 UTC to 29 at 09 UTC
Wind 10 kt from the South/Southeast

TAF: EGGP 281702Z 2818/2918 VRB03KT 9999 SCT035 BECMG 2906/2909 16010KT

Weather observations and forecasts of more than 4000 airports (METAR and TAF reports).

The available stations are represented by yellow and red dots on the map.

Hover mouse over dot to see the name of the station.

Then click to see weather observations and forecasts.

To change the map : click on the green buttons with a black cross to zoom in, on the green button with a dash to zoom out, or on the green arrows for adjacent maps.


METAR-TAF: